createdAt,value
2022-08-05T00:01:36.467Z,5.37
2022-08-05T00:04:19.016Z,5.43
2022-08-05T00:06:51.567Z,5.15
2022-08-05T00:09:22.329Z,5.03
2022-08-05T00:11:56.117Z,5.75
2022-08-05T00:14:29.340Z,6.18
2022-08-05T00:17:01.844Z,5.10
2022-08-05T00:19:33.305Z,6.68
2022-08-05T00:22:11.277Z,6.20
2022-08-05T00:24:42.403Z,5.75
2022-08-05T00:27:14.133Z,6.78
2022-08-05T00:29:46.050Z,4.97
2022-08-05T00:32:17.585Z,5.55
2022-08-05T00:35:04.465Z,6.13
2022-08-05T00:37:53.117Z,5.53
2022-08-05T00:40:26.945Z,5.65
2022-08-05T00:43:01.169Z,5.00
2022-08-05T00:45:42.905Z,5.50
2022-08-05T00:48:14.112Z,5.93
2022-08-05T00:50:46.104Z,6.20
2022-08-05T00:54:01.084Z,5.22
2022-08-05T00:56:08.016Z,5.90
2022-08-05T00:58:38.942Z,5.15
2022-08-05T01:01:11.648Z,6.05
2022-08-05T01:03:41.870Z,6.20
2022-08-05T01:06:15.529Z,5.60
2022-08-05T01:08:47.234Z,5.40
2022-08-05T01:11:22.484Z,4.93
2022-08-05T01:14:08.974Z,5.15
2022-08-05T01:16:48.701Z,5.72
2022-08-05T01:19:36.755Z,5.35
2022-08-05T01:22:24.151Z,4.97
2022-08-05T01:25:17.445Z,4.97
2022-08-05T01:28:28.569Z,5.88
2022-08-05T01:31:03.933Z,5.28
2022-08-05T01:33:36.297Z,5.65
2022-08-05T01:36:12.895Z,5.25
2022-08-05T01:38:45.959Z,4.70
2022-08-05T01:41:21.058Z,6.00
2022-08-05T01:43:52.814Z,5.40
2022-08-05T01:46:41.591Z,4.95
2022-08-05T01:51:58.472Z,4.82
2022-08-05T01:54:45.739Z,5.30
2022-08-05T01:58:11.775Z,6.13
2022-08-05T02:00:11.896Z,6.40
2022-08-05T02:02:55.092Z,5.22
2022-08-05T02:05:25.456Z,4.97
2022-08-05T02:08:01.366Z,4.85
2022-08-05T02:10:34.922Z,5.60
2022-08-05T02:13:16.269Z,5.05
2022-08-05T02:15:53.096Z,5.63
2022-08-05T02:18:33.342Z,5.47
2022-08-05T02:21:15.191Z,5.93
2022-08-05T02:28:48.060Z,5.68
2022-08-05T02:31:23.583Z,5.18
2022-08-05T02:33:57.863Z,5.75
2022-08-05T02:36:31.623Z,5.70
2022-08-05T02:39:02.062Z,5.80
2022-08-05T02:44:21.189Z,5.15
2022-08-05T02:46:58.652Z,5.60
2022-08-05T02:49:36.773Z,5.38
2022-08-05T02:52:09.266Z,5.25
2022-08-05T02:54:42.308Z,5.75
2022-08-05T02:58:10.335Z,5.82
2022-08-05T03:00:10.222Z,6.78
2022-08-05T03:02:42.861Z,5.35
2022-08-05T03:05:12.930Z,5.47
2022-08-05T03:08:06.838Z,5.40
2022-08-05T03:10:31.428Z,6.03
2022-08-05T03:15:27.947Z,5.63
2022-08-05T03:17:59.478Z,6.22
2022-08-05T03:20:28.609Z,6.13
2022-08-05T03:22:58.178Z,5.72
2022-08-05T03:25:33.016Z,5.60
2022-08-05T03:28:04.359Z,6.03
2022-08-05T03:30:34.376Z,5.68
2022-08-05T03:33:07.350Z,6.53
2022-08-05T03:35:41.181Z,5.97
2022-08-05T03:38:14.690Z,6.18
2022-08-05T03:40:45.183Z,5.53
2022-08-05T03:44:08.240Z,5.80
2022-08-05T03:46:08.230Z,5.78
2022-08-05T03:48:38.651Z,5.90
2022-08-05T03:52:39.069Z,6.38
2022-08-05T03:55:53.478Z,6.60
2022-08-05T03:56:59.881Z,6.13
2022-08-05T03:59:47.492Z,7.53
2022-08-05T04:02:38.681Z,6.38
2022-08-05T04:05:23.082Z,6.70
2022-08-05T04:07:58.323Z,6.68
2022-08-05T04:10:31.985Z,6.10
2022-08-05T04:13:06.974Z,6.63
2022-08-05T04:15:36.775Z,6.33
2022-08-05T04:18:07.874Z,6.28
2022-08-05T04:20:41.382Z,5.97
2022-08-05T04:23:12.635Z,6.38
2022-08-05T04:26:00.362Z,5.93
2022-08-05T04:28:30.770Z,5.72
2022-08-05T04:31:01.697Z,7.00
2022-08-05T04:34:17.711Z,7.18
2022-08-05T04:36:49.608Z,7.43
2022-08-05T04:41:44.906Z,7.05
2022-08-05T04:44:20.969Z,7.57
2022-08-05T04:46:50.595Z,7.88
2022-08-05T04:49:24.731Z,7.68
2022-08-05T04:52:08.763Z,7.65
2022-08-05T04:54:37.621Z,8.35
2022-08-05T04:57:06.601Z,8.00
2022-08-05T04:59:39.232Z,9.02
2022-08-05T05:02:37.281Z,10.43
2022-08-05T05:05:03.066Z,7.88
2022-08-05T05:07:35.550Z,8.85
2022-08-05T05:10:06.673Z,8.35
2022-08-05T05:12:36.843Z,8.38
2022-08-05T05:15:10.886Z,9.32
2022-08-05T05:17:55.887Z,9.73
2022-08-05T05:20:28.259Z,9.63
2022-08-05T05:22:59.293Z,8.90
2022-08-05T05:25:32.598Z,9.68
2022-08-05T05:28:02.070Z,9.80
2022-08-05T05:30:33.389Z,11.80
2022-08-05T05:33:15.844Z,9.27
2022-08-05T05:35:47.373Z,8.93
2022-08-05T05:38:22.911Z,9.80
2022-08-05T05:40:56.433Z,10.10
2022-08-05T05:43:57.014Z,9.07
2022-08-05T05:46:17.372Z,9.15
2022-08-05T05:48:48.980Z,9.23
2022-08-05T05:53:57.942Z,9.43
2022-08-05T05:56:31.549Z,9.60
2022-08-05T05:59:05.145Z,8.80
2022-08-05T06:01:37.417Z,9.13
2022-08-05T06:04:11.387Z,8.77
2022-08-05T06:06:42.885Z,9.43
2022-08-05T06:09:17.086Z,9.20
2022-08-05T06:12:00.990Z,8.32
2022-08-05T06:14:31.430Z,8.98
2022-08-05T06:17:02.275Z,8.02
2022-08-05T06:19:57.162Z,9.15
2022-08-05T06:22:29.615Z,8.27
2022-08-05T06:25:00.418Z,8.77
2022-08-05T06:28:11.340Z,8.07
2022-08-05T06:30:21.175Z,7.55
2022-08-05T06:32:50.990Z,7.50
2022-08-05T06:36:03.017Z,7.65
2022-08-05T06:38:11.403Z,8.25
2022-08-05T06:40:44.710Z,8.35
2022-08-05T06:43:58.246Z,6.40
2022-08-05T06:46:06.889Z,7.07
2022-08-05T06:48:53.009Z,6.25
2022-08-05T06:51:30.235Z,6.85
2022-08-05T06:54:01.929Z,5.95
2022-08-05T06:56:34.928Z,6.43
2022-08-05T06:59:09.754Z,5.90
2022-08-05T07:01:42.330Z,6.43
2022-08-05T07:04:13.889Z,5.63
2022-08-05T07:06:43.219Z,5.13
2022-08-05T07:09:11.926Z,5.32
2022-08-05T07:11:49.489Z,4.78
2022-08-05T07:14:37.966Z,4.90
2022-08-05T07:18:00.304Z,5.20
2022-08-05T07:22:45.842Z,5.15
2022-08-05T07:25:54.332Z,5.25
2022-08-05T07:28:11.540Z,4.25
2022-08-05T07:30:40.833Z,4.82
2022-08-05T07:33:16.204Z,4.50
2022-08-05T07:36:01.875Z,4.65
2022-08-05T07:38:43.075Z,4.53
2022-08-05T07:42:09.547Z,4.40
2022-08-05T07:44:05.396Z,5.00
2022-08-05T07:46:34.646Z,4.18
2022-08-05T07:49:06.252Z,4.38
2022-08-05T07:51:40.896Z,3.50
2022-08-05T07:54:18.862Z,4.15
2022-08-05T07:57:01.237Z,4.38
2022-08-05T07:59:40.931Z,4.38
2022-08-05T08:02:16.416Z,4.35
2022-08-05T08:04:48.749Z,3.75
2022-08-05T08:07:22.011Z,4.32
2022-08-05T08:09:55.052Z,4.43
2022-08-05T08:12:36.824Z,4.15
2022-08-05T08:15:15.605Z,4.25
2022-08-05T08:17:50.774Z,4.38
2022-08-05T08:20:59.752Z,4.50
2022-08-05T08:24:02.938Z,4.22
2022-08-05T08:26:02.833Z,4.17
2022-08-05T08:28:36.831Z,4.30
2022-08-05T08:31:15.044Z,4.22
2022-08-05T08:33:51.674Z,3.67
2022-08-05T08:36:38.474Z,3.70
2022-08-05T08:39:15.605Z,3.80
2022-08-05T08:41:52.511Z,3.67
2022-08-05T08:45:16.543Z,3.15
2022-08-05T08:48:05.836Z,3.72
2022-08-05T08:51:03.524Z,3.30
2022-08-05T08:53:08.214Z,3.58
2022-08-05T08:56:05.231Z,3.45
2022-08-05T08:58:37.578Z,3.58
2022-08-05T09:01:18.078Z,3.63
2022-08-05T09:03:54.362Z,3.70
2022-08-05T09:06:29.620Z,3.90
2022-08-05T09:09:01.513Z,3.80
2022-08-05T09:11:51.449Z,4.22
2022-08-05T09:14:58.533Z,3.40
2022-08-05T09:17:40.776Z,4.00
2022-08-05T09:20:02.807Z,4.32
2022-08-05T09:23:09.292Z,3.80
2022-08-05T09:26:01.996Z,3.95
2022-08-05T09:28:31.842Z,3.30
2022-08-05T09:31:22.808Z,3.58
2022-08-05T09:33:56.231Z,3.47
2022-08-05T09:36:33.436Z,4.00
2022-08-05T09:39:16.460Z,4.03
2022-08-05T09:42:00.703Z,3.28
2022-08-05T09:44:37.899Z,2.92
2022-08-05T09:47:12.783Z,4.47
2022-08-05T09:50:01.336Z,2.70
2022-08-05T09:52:36.310Z,3.50
2022-08-05T09:55:56.084Z,2.78
2022-08-05T09:58:11.900Z,2.97
2022-08-05T10:00:40.782Z,2.67
2022-08-05T10:03:12.719Z,2.90
2022-08-05T10:05:42.331Z,2.80
2022-08-05T10:08:37.726Z,2.90
2022-08-05T10:11:01.209Z,2.55
2022-08-05T10:13:47.835Z,2.20
2022-08-05T10:16:32.102Z,2.28
2022-08-05T10:19:08.624Z,2.03
2022-08-05T10:21:40.949Z,3.03
2022-08-05T10:24:13.778Z,2.78
2022-08-05T10:26:49.205Z,2.70
2022-08-05T10:29:23.913Z,2.40
2022-08-05T10:32:53.218Z,2.60
2022-08-05T10:35:04.115Z,2.70
2022-08-05T10:37:44.349Z,2.80
2022-08-05T10:40:28.218Z,3.63
2022-08-05T10:43:01.026Z,2.50
2022-08-05T10:45:40.256Z,2.97
2022-08-05T10:48:38.377Z,2.80
2022-08-05T10:51:28.850Z,2.92
2022-08-05T10:54:01.031Z,2.40
2022-08-05T10:56:45.249Z,3.13
2022-08-05T11:00:03.581Z,3.00
2022-08-05T11:02:14.562Z,2.90
2022-08-05T11:05:00.969Z,2.70
2022-08-05T11:07:33.016Z,2.38
2022-08-05T11:10:27.119Z,2.40
2022-08-05T11:13:01.121Z,2.60
2022-08-05T11:15:59.044Z,2.35
2022-08-05T11:18:30.074Z,2.75
2022-08-05T11:21:02.894Z,2.80
2022-08-05T11:26:34.825Z,2.80
2022-08-05T11:29:12.903Z,2.53
2022-08-05T11:31:57.114Z,3.30
2022-08-05T11:34:50.858Z,2.50
2022-08-05T11:38:28.577Z,2.72
2022-08-05T11:41:34.226Z,2.35
2022-08-05T11:44:05.025Z,3.65
2022-08-05T11:47:09.488Z,3.55
2022-08-05T11:49:34.158Z,2.85
2022-08-05T11:52:11.451Z,3.28
2022-08-05T11:54:43.430Z,3.10
2022-08-05T11:57:25.195Z,3.17
2022-08-05T11:59:55.899Z,2.95
2022-08-05T12:02:33.038Z,3.17
2022-08-05T12:05:06.805Z,3.70
2022-08-05T12:08:03.609Z,2.72
2022-08-05T12:10:43.793Z,3.70
2022-08-05T12:13:18.843Z,3.90
2022-08-05T12:16:14.923Z,4.97
2022-08-05T12:18:49.086Z,3.35
2022-08-05T12:21:26.920Z,3.53
2022-08-05T12:24:04.864Z,3.30
2022-08-05T12:26:36.100Z,2.95
2022-08-05T12:29:09.370Z,4.05
2022-08-05T12:31:41.532Z,3.55
2022-08-05T12:34:21.604Z,3.35
2022-08-05T12:36:55.067Z,3.63
2022-08-05T12:39:34.539Z,3.83
2022-08-05T12:42:14.621Z,3.60
2022-08-05T12:44:46.057Z,3.50
2022-08-05T12:47:30.692Z,3.15
2022-08-05T12:50:05.970Z,4.20
2022-08-05T12:52:39.060Z,3.65
2022-08-05T12:55:22.045Z,3.22
2022-08-05T12:58:38.364Z,3.45
2022-08-05T13:02:02.594Z,3.40
2022-08-05T13:03:39.057Z,3.65
2022-08-05T13:06:14.215Z,3.15
2022-08-05T13:08:50.767Z,3.30
2022-08-05T13:12:01.286Z,3.05
2022-08-05T13:14:24.680Z,3.10
2022-08-05T13:17:08.954Z,3.38
2022-08-05T13:19:50.946Z,3.25
2022-08-05T13:22:28.314Z,3.25
2022-08-05T13:25:05.445Z,3.25
2022-08-05T13:27:39.476Z,2.92
2022-08-05T13:30:34.415Z,3.20
2022-08-05T13:33:01.498Z,2.80
2022-08-05T13:35:42.724Z,2.70
2022-08-05T13:38:28.088Z,3.00
2022-08-05T13:41:00.483Z,3.85
2022-08-05T13:43:44.989Z,3.50
2022-08-05T13:46:30.778Z,3.30
2022-08-05T13:49:10.367Z,3.45
2022-08-05T13:51:46.513Z,3.30
2022-08-05T13:54:21.190Z,3.03
2022-08-05T13:56:54.661Z,3.53
2022-08-05T13:59:27.438Z,3.78
2022-08-05T14:02:00.527Z,3.15
2022-08-05T14:04:49.827Z,3.13
2022-08-05T14:07:25.604Z,3.25
2022-08-05T14:10:13.602Z,3.03
2022-08-05T14:12:48.809Z,4.57
2022-08-05T14:16:04.312Z,2.92
2022-08-05T14:20:48.581Z,3.03
2022-08-05T14:23:23.808Z,3.20
2022-08-05T14:25:59.047Z,2.60
2022-08-05T14:28:29.711Z,3.10
2022-08-05T14:30:59.458Z,3.03
2022-08-05T14:33:32.533Z,3.60
2022-08-05T14:36:21.524Z,3.55
2022-08-05T14:38:51.345Z,3.17
2022-08-05T14:43:57.732Z,3.40
2022-08-05T14:46:31.913Z,3.17
2022-08-05T14:49:07.265Z,2.70
2022-08-05T14:51:37.816Z,2.80
2022-08-05T14:54:27.982Z,3.00
2022-08-05T14:57:00.734Z,3.22
2022-08-05T14:59:35.687Z,2.88
2022-08-05T15:02:15.820Z,2.95
2022-08-05T15:04:47.684Z,3.05
2022-08-05T15:08:12.140Z,4.00
2022-08-05T15:10:09.851Z,3.20
2022-08-05T15:12:59.638Z,3.40
2022-08-05T15:15:54.189Z,3.92
2022-08-05T15:18:18.826Z,5.63
2022-08-05T15:20:47.767Z,3.30
2022-08-05T15:23:16.904Z,3.30
2022-08-05T15:25:52.679Z,2.83
2022-08-05T15:28:27.444Z,3.35
2022-08-05T15:30:57.545Z,3.95
2022-08-05T15:36:17.237Z,3.37
2022-08-05T15:40:58.278Z,3.40
2022-08-05T15:41:58.420Z,3.03
2022-08-05T15:44:30.337Z,3.47
2022-08-05T15:46:59.427Z,3.22
2022-08-05T15:49:47.938Z,3.40
2022-08-05T15:52:51.967Z,3.03
2022-08-05T15:55:07.474Z,3.75
2022-08-05T15:57:39.101Z,3.45
2022-08-05T16:00:12.153Z,3.90
2022-08-05T16:02:48.164Z,3.85
2022-08-05T16:05:17.155Z,3.30
2022-08-05T16:07:50.621Z,3.22
2022-08-05T16:10:25.325Z,3.00
2022-08-05T16:12:55.917Z,4.15
2022-08-05T16:15:32.732Z,3.40
2022-08-05T16:18:04.257Z,2.85
2022-08-05T16:20:33.287Z,3.10
2022-08-05T16:23:03.837Z,3.47
2022-08-05T16:25:34.672Z,4.35
2022-08-05T16:28:05.843Z,3.42
2022-08-05T16:30:36.969Z,3.80
2022-08-05T16:33:06.071Z,3.80
2022-08-05T16:35:43.029Z,3.55
2022-08-05T16:38:18.486Z,4.00
2022-08-05T16:40:55.588Z,4.38
2022-08-05T16:43:31.579Z,3.58
2022-08-05T16:46:24.584Z,3.65
2022-08-05T16:48:53.816Z,4.35
2022-08-05T16:51:24.813Z,3.80
2022-08-05T16:54:03.125Z,3.88
2022-08-05T16:56:41.789Z,3.75
2022-08-05T16:59:11.858Z,4.20
2022-08-05T17:01:54.348Z,4.03
2022-08-05T17:04:27.470Z,4.55
2022-08-05T17:07:01.070Z,4.57
2022-08-05T17:09:55.949Z,4.35
2022-08-05T17:12:22.349Z,4.53
2022-08-05T17:14:51.591Z,4.15
2022-08-05T17:19:55.408Z,4.35
2022-08-05T17:22:25.942Z,4.00
2022-08-05T17:24:57.662Z,4.68
2022-08-05T17:27:33.902Z,4.43
2022-08-05T17:30:11.919Z,4.80
2022-08-05T17:32:42.714Z,4.60
2022-08-05T17:35:12.636Z,4.45
2022-08-05T17:37:45.422Z,4.20
2022-08-05T17:40:22.501Z,5.43
2022-08-05T17:42:53.066Z,4.82
2022-08-05T17:45:26.322Z,5.65
2022-08-05T17:48:09.059Z,4.57
2022-08-05T17:50:40.062Z,5.68
2022-08-05T17:53:10.221Z,5.93
2022-08-05T17:55:40.167Z,5.57
2022-08-05T17:58:12.577Z,5.07
2022-08-05T18:00:45.550Z,5.60
2022-08-05T18:06:11.009Z,5.20
2022-08-05T18:08:45.103Z,6.15
2022-08-05T18:11:24.349Z,5.80
2022-08-05T18:13:59.711Z,6.57
2022-08-05T18:16:29.344Z,6.90
2022-08-05T18:18:59.581Z,6.07
2022-08-05T18:22:07.824Z,6.45
2022-08-05T18:24:17.272Z,6.50
2022-08-05T18:26:46.459Z,7.60
2022-08-05T18:29:17.015Z,6.78
2022-08-05T18:31:45.888Z,6.90
2022-08-05T18:34:21.647Z,6.90
2022-08-05T18:36:50.737Z,6.30
2022-08-05T18:40:31.826Z,6.32
2022-08-05T18:42:11.696Z,7.22
2022-08-05T18:44:55.340Z,6.85
2022-08-05T18:47:26.618Z,7.57
2022-08-05T18:50:15.654Z,7.47
2022-08-05T18:52:51.249Z,6.97
2022-08-05T18:55:22.334Z,8.38
2022-08-05T18:57:53.816Z,7.07
2022-08-05T19:00:27.234Z,7.63
2022-08-05T19:03:03.926Z,7.95
2022-08-05T19:06:13.613Z,7.55
2022-08-05T19:08:30.543Z,7.45
2022-08-05T19:11:04.722Z,7.75
2022-08-05T19:13:36.189Z,7.43
2022-08-05T19:16:25.281Z,7.03
2022-08-05T19:18:56.766Z,7.20
2022-08-05T19:24:09.028Z,8.55
2022-08-05T19:26:54.221Z,8.45
2022-08-05T19:29:35.461Z,10.43
2022-08-05T19:34:33.430Z,7.80
2022-08-05T19:37:04.320Z,8.50
2022-08-05T19:39:33.279Z,8.65
2022-08-05T19:42:15.326Z,8.48
2022-08-05T19:44:45.117Z,9.07
2022-08-05T19:47:16.305Z,9.93
2022-08-05T19:49:46.036Z,10.50
2022-08-05T19:52:31.067Z,10.77
2022-08-05T19:55:07.324Z,10.90
2022-08-05T19:58:19.515Z,10.57
2022-08-05T20:00:39.962Z,9.95
2022-08-05T20:03:09.509Z,9.32
2022-08-05T20:05:50.159Z,9.98
2022-08-05T20:08:24.584Z,8.95
2022-08-05T20:10:53.590Z,7.85
2022-08-05T20:13:54.862Z,8.27
2022-08-05T20:16:12.192Z,8.70
2022-08-05T20:18:41.058Z,8.13
2022-08-05T20:21:10.257Z,9.00
2022-08-05T20:23:51.057Z,7.82
2022-08-05T20:26:24.716Z,7.63
2022-08-05T20:28:56.221Z,8.13
2022-08-05T20:31:28.570Z,7.15
2022-08-05T20:34:12.810Z,8.85
2022-08-05T20:36:43.445Z,8.60
2022-08-05T20:39:16.462Z,8.00
2022-08-05T20:41:47.849Z,8.68
2022-08-05T20:44:30.512Z,8.27
2022-08-05T20:47:01.644Z,8.02
2022-08-05T20:49:33.242Z,9.85
2022-08-05T20:52:07.104Z,9.23
2022-08-05T20:54:42.917Z,8.32
2022-08-05T20:57:43.095Z,7.88
2022-08-05T21:00:41.248Z,9.40
2022-08-05T21:03:07.202Z,8.95
2022-08-05T21:05:54.427Z,8.80
2022-08-05T21:08:26.676Z,8.88
2022-08-05T21:11:11.957Z,8.82
2022-08-05T21:13:55.747Z,9.70
2022-08-05T21:16:29.419Z,8.75
2022-08-05T21:19:00.923Z,8.95
2022-08-05T21:21:39.536Z,9.25
2022-08-05T21:24:15.729Z,9.65
2022-08-05T21:26:58.355Z,10.82
2022-08-05T21:29:31.585Z,9.35
2022-08-05T21:32:02.104Z,9.55
2022-08-05T21:34:33.151Z,9.95
2022-08-05T21:37:04.968Z,9.93
2022-08-05T21:39:34.603Z,9.40
2022-08-05T21:42:31.064Z,10.85
2022-08-05T21:44:59.568Z,9.98
2022-08-05T21:47:54.797Z,10.88
2022-08-05T21:50:17.895Z,11.40
2022-08-05T21:52:47.330Z,12.07
2022-08-05T21:58:10.508Z,11.07
2022-08-05T22:00:51.114Z,11.05
2022-08-05T22:03:52.048Z,12.48
2022-08-05T22:06:09.754Z,11.80
2022-08-05T22:08:42.736Z,12.63
2022-08-05T22:11:15.637Z,15.60
2022-08-05T22:14:18.330Z,12.90
2022-08-05T22:19:57.460Z,13.77
2022-08-05T22:22:10.590Z,11.32
2022-08-05T22:24:56.517Z,12.50
2022-08-05T22:28:08.250Z,13.70
2022-08-05T22:30:36.032Z,12.40
2022-08-05T22:33:15.547Z,14.00
2022-08-05T22:35:48.649Z,12.90
2022-08-05T22:38:18.932Z,13.10
2022-08-05T22:40:49.379Z,13.68
2022-08-05T22:43:37.331Z,17.08
2022-08-05T22:46:13.536Z,12.95
2022-08-05T22:48:52.131Z,13.45
2022-08-05T22:51:23.086Z,13.50
2022-08-05T22:54:09.996Z,13.73
2022-08-05T22:56:39.983Z,13.50
2022-08-05T22:59:46.189Z,13.50
2022-08-05T23:02:05.580Z,13.10
2022-08-05T23:04:36.736Z,13.43
2022-08-05T23:09:58.229Z,13.65
2022-08-05T23:12:28.874Z,13.30
2022-08-05T23:14:58.040Z,13.55
2022-08-05T23:17:34.514Z,13.70
2022-08-05T23:20:16.626Z,13.98
2022-08-05T23:25:51.132Z,13.15
2022-08-05T23:28:07.747Z,11.93
2022-08-05T23:30:40.614Z,13.52
2022-08-05T23:33:22.092Z,12.88
2022-08-05T23:35:55.939Z,13.93
2022-08-05T23:38:26.716Z,12.95
2022-08-05T23:44:05.275Z,14.63
2022-08-05T23:46:20.216Z,13.88
2022-08-05T23:49:00.999Z,13.43
2022-08-05T23:51:48.395Z,13.93
2022-08-05T23:54:25.736Z,14.30
2022-08-05T23:57:04.005Z,13.82
